createdAt,value
2023-03-29T00:01:11.549Z,0.94
2023-03-29T00:04:02.918Z,0.90
2023-03-29T00:06:33.435Z,0.90
2023-03-29T00:09:05.456Z,0.97
2023-03-29T00:11:34.595Z,0.92
2023-03-29T00:14:03.188Z,0.98
2023-03-29T00:16:32.242Z,0.92
2023-03-29T00:19:02.325Z,0.94
2023-03-29T00:21:31.420Z,0.94
2023-03-29T00:24:00.739Z,0.95
2023-03-29T00:26:29.425Z,0.92
2023-03-29T00:28:58.419Z,1.01
2023-03-29T00:31:27.652Z,0.88
2023-03-29T00:33:56.890Z,0.90
2023-03-29T00:36:27.877Z,0.91
2023-03-29T00:38:58.112Z,0.94
2023-03-29T00:41:27.271Z,0.79
2023-03-29T00:44:00.853Z,0.91
2023-03-29T00:46:32.562Z,1.00
2023-03-29T00:49:09.381Z,0.89
2023-03-29T00:51:43.523Z,0.93
2023-03-29T00:54:18.812Z,0.89
2023-03-29T00:56:51.693Z,0.92
2023-03-29T00:59:25.930Z,0.85
2023-03-29T01:01:59.935Z,0.91
2023-03-29T01:04:36.468Z,0.91
2023-03-29T01:07:14.021Z,0.71
2023-03-29T01:09:48.841Z,0.81
2023-03-29T01:12:23.618Z,0.69
2023-03-29T01:14:57.666Z,0.77
2023-03-29T01:17:26.652Z,0.66
2023-03-29T01:20:00.681Z,0.73
2023-03-29T01:22:45.133Z,0.76
2023-03-29T01:25:26.262Z,0.73
2023-03-29T01:28:03.733Z,0.72
2023-03-29T01:30:38.693Z,0.79
2023-03-29T01:33:21.290Z,0.71
2023-03-29T01:35:58.720Z,0.76
2023-03-29T01:38:32.168Z,0.73
2023-03-29T01:41:04.082Z,0.73
2023-03-29T01:43:43.097Z,0.69
2023-03-29T01:46:20.939Z,0.59
2023-03-29T01:48:56.042Z,0.77
2023-03-29T01:51:33.233Z,0.67
2023-03-29T01:54:09.587Z,0.63
2023-03-29T01:56:43.010Z,0.59
2023-03-29T01:59:18.345Z,0.69
2023-03-29T02:01:52.249Z,0.66
2023-03-29T02:04:29.149Z,0.60
2023-03-29T02:07:01.642Z,0.62
2023-03-29T02:09:32.088Z,0.44
2023-03-29T02:12:04.242Z,0.54
2023-03-29T02:14:36.527Z,0.62
2023-03-29T02:17:29.347Z,0.48
2023-03-29T02:20:09.617Z,0.55
2023-03-29T02:22:45.982Z,0.66
2023-03-29T02:25:17.712Z,0.64
2023-03-29T02:27:47.381Z,0.53
2023-03-29T02:30:20.828Z,0.60
2023-03-29T02:32:59.633Z,0.47
2023-03-29T02:35:36.467Z,0.50
2023-03-29T02:38:11.465Z,0.53
2023-03-29T02:40:42.931Z,0.50
2023-03-29T02:43:14.176Z,0.50
2023-03-29T02:45:45.790Z,0.51
2023-03-29T02:48:21.186Z,0.51
2023-03-29T02:50:57.565Z,0.53
2023-03-29T02:53:33.144Z,0.51
2023-03-29T02:56:04.233Z,0.57
2023-03-29T02:58:32.949Z,0.41
2023-03-29T03:01:06.807Z,0.57
2023-03-29T03:03:35.915Z,0.48
2023-03-29T03:06:06.323Z,0.57
2023-03-29T03:08:35.043Z,0.62
2023-03-29T03:11:03.896Z,0.52
2023-03-29T03:13:32.890Z,0.43
2023-03-29T03:16:03.359Z,0.62
2023-03-29T03:18:32.121Z,0.48
2023-03-29T03:21:02.510Z,0.46
2023-03-29T03:23:32.125Z,0.46
2023-03-29T03:26:00.838Z,0.56
2023-03-29T03:28:32.338Z,0.48
2023-03-29T03:31:03.718Z,0.48
2023-03-29T03:33:58.903Z,0.44
2023-03-29T03:36:42.193Z,0.46
2023-03-29T03:39:12.851Z,0.53
2023-03-29T03:41:41.899Z,0.47
2023-03-29T03:44:10.644Z,0.48
2023-03-29T03:46:41.652Z,0.48
2023-03-29T03:49:10.478Z,0.44
2023-03-29T03:51:42.019Z,0.42
2023-03-29T03:54:11.291Z,0.62
2023-03-29T03:56:39.992Z,0.53
2023-03-29T03:59:15.568Z,0.56
2023-03-29T04:02:08.436Z,0.42
2023-03-29T04:04:40.621Z,0.48
2023-03-29T04:07:14.474Z,0.39
2023-03-29T04:09:46.296Z,0.39
2023-03-29T04:12:24.874Z,0.37
2023-03-29T04:14:53.820Z,0.44
2023-03-29T04:17:25.321Z,0.48
2023-03-29T04:20:07.489Z,0.38
2023-03-29T04:22:36.355Z,0.25
2023-03-29T04:25:06.424Z,0.38
2023-03-29T04:27:50.867Z,0.43
2023-03-29T04:30:43.286Z,0.32
2023-03-29T04:33:36.461Z,0.29
2023-03-29T04:36:06.257Z,0.35
2023-03-29T04:38:38.087Z,0.41
2023-03-29T04:41:07.744Z,0.14
2023-03-29T04:43:58.439Z,0.29
2023-03-29T04:46:28.635Z,0.34
2023-03-29T04:49:27.918Z,0.44
2023-03-29T04:51:57.180Z,0.34
2023-03-29T04:54:29.816Z,0.20
2023-03-29T04:57:17.213Z,0.22
2023-03-29T05:00:15.345Z,0.34
2023-03-29T05:03:04.937Z,0.18
2023-03-29T05:05:38.649Z,0.26
2023-03-29T05:08:09.549Z,0.28
2023-03-29T05:11:02.056Z,0.32
2023-03-29T05:13:30.943Z,0.29
2023-03-29T05:16:00.762Z,0.38
2023-03-29T05:18:31.076Z,0.49
2023-03-29T05:21:01.893Z,0.24
2023-03-29T05:23:30.882Z,0.42
2023-03-29T05:26:20.298Z,0.47
2023-03-29T05:28:52.765Z,0.50
2023-03-29T05:31:21.619Z,0.49
2023-03-29T05:33:54.255Z,0.52
2023-03-29T05:36:24.830Z,0.57
2023-03-29T05:38:55.149Z,0.62
2023-03-29T05:41:25.774Z,0.69
2023-03-29T05:44:12.959Z,0.66
2023-03-29T05:46:44.335Z,0.79
2023-03-29T05:49:17.411Z,0.70
2023-03-29T05:52:11.091Z,0.54
2023-03-29T05:54:40.491Z,0.48
2023-03-29T05:57:09.641Z,0.62
2023-03-29T05:59:38.610Z,0.54
2023-03-29T06:02:07.616Z,0.62
2023-03-29T06:04:40.836Z,0.51
2023-03-29T06:07:26.199Z,0.64
2023-03-29T06:10:24.801Z,0.68
2023-03-29T06:13:00.230Z,0.79
2023-03-29T06:15:34.980Z,0.84
2023-03-29T06:18:07.681Z,0.79
2023-03-29T06:20:37.734Z,0.85
2023-03-29T06:23:13.269Z,0.85
2023-03-29T06:25:42.086Z,0.91
2023-03-29T06:28:11.973Z,0.86
2023-03-29T06:30:44.449Z,0.90
2023-03-29T06:33:14.444Z,0.90
2023-03-29T06:36:10.629Z,0.76
2023-03-29T06:38:41.854Z,0.88
2023-03-29T06:41:21.593Z,1.08
2023-03-29T06:44:08.926Z,0.85
2023-03-29T06:46:43.877Z,1.05
2023-03-29T06:49:12.674Z,1.08
2023-03-29T06:52:04.151Z,1.15
2023-03-29T06:54:35.243Z,1.17
2023-03-29T06:57:05.958Z,1.13
2023-03-29T06:59:35.841Z,1.07
2023-03-29T07:02:17.693Z,1.19
2023-03-29T07:04:49.866Z,1.16
2023-03-29T07:07:22.862Z,1.19
2023-03-29T07:10:09.981Z,1.18
2023-03-29T07:13:05.926Z,1.17
2023-03-29T07:15:34.983Z,1.30
2023-03-29T07:18:13.700Z,1.19
2023-03-29T07:20:42.665Z,1.20
2023-03-29T07:23:12.473Z,1.25
2023-03-29T07:25:45.348Z,1.13
2023-03-29T07:28:14.524Z,0.98
2023-03-29T07:30:43.350Z,1.08
2023-03-29T07:33:15.012Z,1.25
2023-03-29T07:35:56.253Z,1.11
2023-03-29T07:38:25.556Z,1.17
2023-03-29T07:41:08.766Z,1.15
2023-03-29T07:43:52.179Z,1.30
2023-03-29T07:46:25.664Z,1.37
2023-03-29T07:48:56.777Z,1.20
2023-03-29T07:51:26.984Z,1.25
2023-03-29T07:54:09.029Z,1.33
2023-03-29T07:56:39.115Z,1.57
2023-03-29T07:59:17.039Z,1.39
2023-03-29T08:01:50.415Z,1.37
2023-03-29T08:04:27.697Z,1.58
2023-03-29T08:07:17.702Z,1.45
2023-03-29T08:10:06.908Z,1.52
2023-03-29T08:13:07.402Z,1.64
2023-03-29T08:16:03.493Z,1.55
2023-03-29T08:18:36.990Z,1.61
2023-03-29T08:21:07.392Z,1.42
2023-03-29T08:23:36.172Z,1.48
2023-03-29T08:26:18.224Z,1.39
2023-03-29T08:28:50.085Z,1.50
2023-03-29T08:31:21.010Z,1.61
2023-03-29T08:33:49.942Z,1.62
2023-03-29T08:36:41.382Z,1.48
2023-03-29T08:39:21.669Z,1.46
2023-03-29T08:42:24.901Z,1.45
2023-03-29T08:45:09.504Z,1.45
2023-03-29T08:47:53.089Z,1.36
2023-03-29T08:50:26.711Z,1.59
2023-03-29T08:53:01.412Z,1.55
2023-03-29T08:55:58.892Z,1.65
2023-03-29T08:58:48.073Z,1.46
2023-03-29T09:01:18.453Z,1.62
2023-03-29T09:04:05.004Z,1.48
2023-03-29T09:06:57.957Z,1.39
2023-03-29T09:09:36.179Z,1.51
2023-03-29T09:12:26.914Z,1.33
2023-03-29T09:15:16.487Z,1.46
2023-03-29T09:18:09.472Z,1.23
2023-03-29T09:20:49.245Z,1.26
2023-03-29T09:23:48.418Z,1.36
2023-03-29T09:26:33.635Z,1.09
2023-03-29T09:29:42.284Z,1.13
2023-03-29T09:32:22.554Z,1.15
2023-03-29T09:35:14.300Z,0.91
2023-03-29T09:37:44.081Z,0.91
2023-03-29T09:40:17.002Z,1.06
2023-03-29T09:43:10.717Z,1.26
2023-03-29T09:45:42.025Z,1.39
2023-03-29T09:48:15.199Z,1.45
2023-03-29T09:50:52.723Z,1.50
2023-03-29T09:53:23.505Z,1.52
2023-03-29T09:56:03.270Z,1.51
2023-03-29T09:58:52.201Z,1.64
2023-03-29T10:01:21.871Z,1.36
2023-03-29T10:03:54.034Z,1.47
2023-03-29T10:06:26.995Z,1.41
2023-03-29T10:08:59.996Z,1.21
2023-03-29T10:11:37.058Z,1.39
2023-03-29T10:14:13.553Z,1.34
2023-03-29T10:16:46.362Z,1.45
2023-03-29T10:19:23.063Z,1.48
2023-03-29T10:21:56.945Z,1.60
2023-03-29T10:24:28.696Z,1.60
2023-03-29T10:27:01.716Z,1.57
2023-03-29T10:29:40.251Z,1.67
2023-03-29T10:32:27.773Z,1.49
2023-03-29T10:35:00.527Z,1.48
2023-03-29T10:37:30.678Z,1.43
2023-03-29T10:39:59.460Z,1.32
2023-03-29T10:42:29.425Z,1.53
2023-03-29T10:45:00.615Z,1.48
2023-03-29T10:47:35.086Z,1.32
2023-03-29T10:50:08.312Z,1.25
2023-03-29T10:52:41.077Z,1.23
2023-03-29T10:55:14.861Z,1.06
2023-03-29T10:58:00.228Z,0.98
2023-03-29T11:00:41.914Z,0.96
2023-03-29T11:03:41.364Z,1.07
2023-03-29T11:06:21.717Z,0.95
2023-03-29T11:09:00.462Z,0.97
2023-03-29T11:12:14.968Z,0.96
2023-03-29T11:14:59.972Z,0.97
2023-03-29T11:17:51.197Z,1.01
2023-03-29T11:20:34.501Z,1.05
2023-03-29T11:23:22.329Z,0.99
2023-03-29T11:26:06.240Z,1.05
2023-03-29T11:28:47.228Z,1.03
2023-03-29T11:31:32.237Z,0.93
2023-03-29T11:34:22.173Z,0.90
2023-03-29T11:37:01.122Z,0.93
2023-03-29T11:39:42.382Z,1.02
2023-03-29T11:42:21.488Z,1.18
2023-03-29T11:44:55.820Z,1.07
2023-03-29T11:47:31.418Z,1.01
2023-03-29T11:50:07.805Z,0.95
2023-03-29T11:52:42.017Z,0.92
2023-03-29T11:55:19.049Z,0.91
2023-03-29T11:57:56.684Z,0.76
2023-03-29T12:00:31.751Z,0.75
2023-03-29T12:03:08.185Z,0.88
2023-03-29T12:05:43.205Z,0.76
2023-03-29T12:08:19.899Z,0.80
2023-03-29T12:10:59.774Z,0.66
2023-03-29T12:13:35.371Z,0.74
2023-03-29T12:16:14.979Z,0.69
2023-03-29T12:18:47.746Z,0.75
2023-03-29T12:21:22.147Z,0.76
2023-03-29T12:23:53.196Z,0.95
2023-03-29T12:26:55.002Z,0.82
2023-03-29T12:30:07.609Z,0.68
2023-03-29T12:33:35.646Z,0.77
2023-03-29T12:37:06.526Z,0.77
2023-03-29T12:39:55.135Z,0.90
2023-03-29T12:42:49.722Z,0.78
2023-03-29T12:45:48.683Z,0.74
2023-03-29T12:48:21.630Z,0.71
2023-03-29T12:50:54.360Z,0.73
2023-03-29T12:53:27.282Z,0.76
2023-03-29T12:56:11.647Z,0.79
2023-03-29T12:58:55.088Z,0.81
2023-03-29T13:01:29.835Z,0.85
2023-03-29T13:04:23.507Z,0.81
2023-03-29T13:07:06.028Z,0.85
2023-03-29T13:09:51.190Z,0.72
2023-03-29T13:12:28.865Z,0.78
2023-03-29T13:15:02.162Z,0.83
2023-03-29T13:17:46.420Z,0.85
2023-03-29T13:20:42.305Z,0.87
2023-03-29T13:23:32.321Z,0.79
2023-03-29T13:26:35.691Z,0.68
2023-03-29T13:29:42.760Z,0.48
2023-03-29T13:32:33.931Z,0.48
2023-03-29T13:35:18.311Z,0.44
2023-03-29T13:38:05.254Z,0.55
2023-03-29T13:41:05.358Z,0.46
2023-03-29T13:43:38.167Z,0.40
2023-03-29T13:46:26.897Z,0.28
2023-03-29T13:49:05.540Z,0.36
2023-03-29T13:51:41.265Z,0.50
2023-03-29T13:54:24.789Z,0.48
2023-03-29T13:57:17.246Z,0.36
2023-03-29T13:59:56.196Z,0.18
2023-03-29T14:02:38.093Z,0.16
2023-03-29T14:05:13.939Z,0.13
2023-03-29T14:07:50.936Z,0.22
2023-03-29T14:10:25.719Z,0.30
2023-03-29T14:12:56.696Z,0.32
2023-03-29T14:15:36.222Z,0.29
2023-03-29T14:18:05.147Z,0.21
2023-03-29T14:20:34.977Z,0.04
2023-03-29T14:23:13.343Z,0.08
2023-03-29T14:25:43.651Z,0.19
2023-03-29T14:28:23.528Z,0.23
2023-03-29T14:30:53.735Z,0.15
2023-03-29T14:33:28.422Z,0.17
2023-03-29T14:35:59.829Z,0.23
2023-03-29T14:38:32.596Z,0.11
2023-03-29T14:41:04.582Z,0.18
2023-03-29T14:43:33.761Z,0.18
2023-03-29T14:46:07.840Z,0.25
2023-03-29T14:48:37.495Z,0.10
2023-03-29T14:51:07.607Z,0.15
2023-03-29T14:53:39.081Z,0.09
2023-03-29T14:56:13.309Z,0.20
2023-03-29T14:58:47.680Z,0.17
2023-03-29T15:01:19.656Z,0.03
2023-03-29T15:03:59.493Z,0.09
2023-03-29T15:06:31.070Z,-0.01
2023-03-29T15:09:06.429Z,0.10
2023-03-29T15:11:36.722Z,0.14
2023-03-29T15:14:08.837Z,0.03
2023-03-29T15:16:41.902Z,0.03
2023-03-29T15:19:18.199Z,0.06
2023-03-29T15:21:49.552Z,-0.10
2023-03-29T15:24:29.384Z,-0.01
2023-03-29T15:27:06.207Z,-0.01
2023-03-29T15:29:42.124Z,-0.06
2023-03-29T15:32:21.202Z,-0.11
2023-03-29T15:35:00.351Z,-0.14
2023-03-29T15:37:30.100Z,-0.13
2023-03-29T15:40:00.282Z,-0.19
2023-03-29T15:42:29.045Z,-0.29
2023-03-29T15:44:58.125Z,-0.20
2023-03-29T15:47:27.610Z,-0.34
2023-03-29T15:49:56.270Z,-0.26
2023-03-29T15:52:25.238Z,-0.27
2023-03-29T15:54:53.788Z,-0.32
2023-03-29T15:57:24.125Z,-0.31
2023-03-29T15:59:54.890Z,-0.28
2023-03-29T16:02:26.424Z,-0.30
2023-03-29T16:04:55.405Z,-0.29
2023-03-29T16:07:24.070Z,-0.34
2023-03-29T16:09:52.851Z,-0.27
2023-03-29T16:12:21.875Z,-0.29
2023-03-29T16:14:51.890Z,-0.40
2023-03-29T16:17:20.813Z,-0.42
2023-03-29T16:19:49.657Z,-0.52
2023-03-29T16:22:26.099Z,-0.58
2023-03-29T16:24:54.851Z,-0.48
2023-03-29T16:27:23.536Z,-0.58
2023-03-29T16:29:53.582Z,-0.61
2023-03-29T16:32:22.337Z,-0.60
2023-03-29T16:34:51.152Z,-0.51
2023-03-29T16:37:19.968Z,-0.50
2023-03-29T16:39:48.620Z,-0.66
2023-03-29T16:44:46.015Z,-0.62
2023-03-29T16:47:16.383Z,-0.65
2023-03-29T16:49:48.619Z,-0.69
2023-03-29T16:52:17.319Z,-0.64
2023-03-29T16:54:46.973Z,-0.62
2023-03-29T16:57:15.713Z,-0.61
2023-03-29T16:59:47.476Z,-0.65
2023-03-29T17:02:17.536Z,-0.61
2023-03-29T17:04:46.405Z,-0.56
2023-03-29T17:07:15.137Z,-0.57
2023-03-29T17:09:45.931Z,-0.54
2023-03-29T17:12:14.621Z,-0.57
2023-03-29T17:14:43.606Z,-0.55
2023-03-29T17:17:12.348Z,-0.57
2023-03-29T17:19:42.544Z,-0.61
2023-03-29T17:22:11.371Z,-0.64
2023-03-29T17:24:40.037Z,-0.69
2023-03-29T17:27:08.837Z,-0.66
2023-03-29T17:29:37.442Z,-0.66
2023-03-29T17:32:07.001Z,-0.59
2023-03-29T17:34:35.763Z,-0.57
2023-03-29T17:37:05.885Z,-0.59
2023-03-29T17:39:37.595Z,-0.53
2023-03-29T17:42:09.963Z,-0.41
2023-03-29T17:44:38.770Z,-0.45
2023-03-29T17:47:07.582Z,-0.50
2023-03-29T17:49:36.349Z,-0.53
2023-03-29T17:52:06.490Z,-0.52
2023-03-29T17:54:35.106Z,-0.55
2023-03-29T17:57:04.577Z,-0.52
2023-03-29T17:59:33.281Z,-0.56
2023-03-29T18:02:05.380Z,-0.53
2023-03-29T18:04:34.845Z,-0.71
2023-03-29T18:07:03.421Z,-0.64
2023-03-29T18:09:33.842Z,-0.71
2023-03-29T18:12:02.661Z,-0.80
2023-03-29T18:14:31.310Z,-0.64
2023-03-29T18:17:00.169Z,-0.72
2023-03-29T18:19:29.140Z,-0.73
2023-03-29T18:21:57.854Z,-0.82
2023-03-29T18:24:27.633Z,-0.72
2023-03-29T18:26:57.674Z,-0.70
2023-03-29T18:29:26.966Z,-0.80
2023-03-29T18:31:55.573Z,-0.73
2023-03-29T18:34:24.279Z,-0.74
2023-03-29T18:36:53.722Z,-0.66
2023-03-29T18:39:22.348Z,-0.92
2023-03-29T18:41:51.448Z,-0.90
2023-03-29T18:44:27.330Z,-0.87
2023-03-29T18:46:56.401Z,-0.83
2023-03-29T18:49:25.818Z,-0.89
2023-03-29T18:51:55.575Z,-1.00
2023-03-29T18:54:24.248Z,-1.02
2023-03-29T18:56:52.970Z,-1.11
2023-03-29T18:59:23.145Z,-1.22
2023-03-29T19:01:51.751Z,-1.20
2023-03-29T19:04:20.950Z,-1.24
2023-03-29T19:06:49.868Z,-1.26
2023-03-29T19:09:18.663Z,-1.20
2023-03-29T19:11:48.110Z,-1.31
2023-03-29T19:14:17.507Z,-1.25
2023-03-29T19:16:50.852Z,-1.20
2023-03-29T19:19:19.804Z,-1.43
2023-03-29T19:21:50.089Z,-1.39
2023-03-29T19:24:19.159Z,-1.30
2023-03-29T19:26:48.047Z,-1.39
2023-03-29T19:29:16.965Z,-1.35
2023-03-29T19:31:46.256Z,-1.31
2023-03-29T19:34:19.710Z,-1.41
2023-03-29T19:36:49.180Z,-1.39
2023-03-29T19:39:17.960Z,-1.40
2023-03-29T19:41:47.719Z,-1.30
2023-03-29T19:44:16.434Z,-1.32
2023-03-29T19:46:45.147Z,-1.30
2023-03-29T19:49:15.849Z,-1.46
2023-03-29T19:51:48.027Z,-1.40
2023-03-29T19:54:18.353Z,-1.41
2023-03-29T19:56:47.209Z,-1.36
2023-03-29T19:59:17.859Z,-1.45
2023-03-29T20:01:51.324Z,-1.34
2023-03-29T20:04:27.624Z,-1.44
2023-03-29T20:06:57.614Z,-1.52
2023-03-29T20:09:26.431Z,-1.42
2023-03-29T20:11:55.146Z,-1.48
2023-03-29T20:14:24.127Z,-1.52
2023-03-29T20:16:54.190Z,-1.46
2023-03-29T20:19:25.277Z,-1.52
2023-03-29T20:21:57.623Z,-1.57
2023-03-29T20:24:26.776Z,-1.51
2023-03-29T20:26:55.514Z,-1.53
2023-03-29T20:29:24.209Z,-1.64
2023-03-29T20:31:52.853Z,-1.70
2023-03-29T20:34:21.601Z,-1.60
2023-03-29T20:36:55.256Z,-1.75
2023-03-29T20:39:25.776Z,-1.78
2023-03-29T20:41:54.749Z,-1.77
2023-03-29T20:44:26.249Z,-1.70
2023-03-29T20:47:02.401Z,-1.89
2023-03-29T20:49:37.124Z,-1.91
2023-03-29T20:52:12.543Z,-1.92
2023-03-29T20:54:41.655Z,-1.93
2023-03-29T20:57:14.177Z,-1.91
2023-03-29T20:59:43.213Z,-2.03
2023-03-29T21:02:14.752Z,-2.10
2023-03-29T21:04:44.127Z,-2.10
2023-03-29T21:07:17.190Z,-2.09
2023-03-29T21:09:47.346Z,-2.12
2023-03-29T21:12:16.043Z,-2.13
2023-03-29T21:14:44.765Z,-2.15
2023-03-29T21:17:14.226Z,-2.13
2023-03-29T21:19:42.852Z,-2.14
2023-03-29T21:22:13.750Z,-2.15
2023-03-29T21:24:43.732Z,-2.18
2023-03-29T21:27:12.390Z,-2.20
2023-03-29T21:29:41.042Z,-2.25
2023-03-29T21:32:10.830Z,-2.29
2023-03-29T21:34:39.696Z,-2.36
2023-03-29T21:37:08.406Z,-2.33
2023-03-29T21:39:37.070Z,-2.33
2023-03-29T21:42:07.538Z,-2.37
2023-03-29T21:44:36.231Z,-2.36
2023-03-29T21:47:05.114Z,-2.36
2023-03-29T21:49:33.698Z,-2.30
2023-03-29T21:52:02.380Z,-2.38
2023-03-29T21:54:31.026Z,-2.38
2023-03-29T21:56:59.677Z,-2.34
2023-03-29T21:59:30.140Z,-2.39
2023-03-29T22:01:58.869Z,-2.41
2023-03-29T22:04:36.591Z,-2.42
2023-03-29T22:07:08.363Z,-2.44
2023-03-29T22:09:37.031Z,-2.46
2023-03-29T22:12:06.812Z,-2.49
2023-03-29T22:14:37.525Z,-2.57
2023-03-29T22:17:12.218Z,-2.59
2023-03-29T22:19:41.807Z,-2.50
2023-03-29T22:22:14.091Z,-2.59
2023-03-29T22:24:43.607Z,-2.64
2023-03-29T22:27:12.861Z,-2.66
2023-03-29T22:29:42.838Z,-2.61
2023-03-29T22:32:11.556Z,-2.53
2023-03-29T22:34:40.547Z,-2.67
2023-03-29T22:37:09.125Z,-2.76
2023-03-29T22:39:38.111Z,-2.63
2023-03-29T22:42:07.247Z,-2.72
2023-03-29T22:44:36.127Z,-2.75
2023-03-29T22:47:06.230Z,-2.66
2023-03-29T22:49:35.279Z,-2.75
2023-03-29T22:52:03.933Z,-2.80
2023-03-29T22:54:32.847Z,-2.82
2023-03-29T22:57:01.539Z,-2.94
2023-03-29T22:59:30.431Z,-2.92
2023-03-29T23:01:59.143Z,-2.93
2023-03-29T23:04:29.252Z,-2.89
2023-03-29T23:06:58.488Z,-2.92
2023-03-29T23:09:27.141Z,-3.00
2023-03-29T23:11:55.784Z,-3.04
2023-03-29T23:14:24.394Z,-3.04
2023-03-29T23:16:53.032Z,-3.04
2023-03-29T23:19:21.628Z,-3.12
2023-03-29T23:21:52.808Z,-3.02
2023-03-29T23:24:21.412Z,-3.04
2023-03-29T23:26:50.213Z,-2.99
2023-03-29T23:29:18.934Z,-3.00
2023-03-29T23:31:47.776Z,-2.97
2023-03-29T23:34:16.561Z,-2.92
2023-03-29T23:36:45.177Z,-2.93
2023-03-29T23:39:16.146Z,-2.99
2023-03-29T23:41:44.741Z,-2.94
2023-03-29T23:44:13.438Z,-2.99
2023-03-29T23:46:42.426Z,-2.99
2023-03-29T23:49:11.137Z,-2.92
2023-03-29T23:51:42.631Z,-2.98
2023-03-29T23:54:12.045Z,-2.95
2023-03-29T23:56:42.232Z,-2.94
2023-03-29T23:59:11.022Z,-2.97
